Historique des mesures à Cassis (13260), France
Quotidien Résumé Fevrier 18, 2018 Unités:  Métrique    US   Métrique/US
« Précédent (Jour)
Suivant (Jour) »
Quotidien Hebdomadaire Mensuel Annuel Période au choix
  Maximum: Minimum: Moyenne:
Température: TemperatureC °C 6.7 °C 8.8 °C
Point de rosée: DewpointC °C 0.9 °C 2.3 °C
Humidité: Humidity % 55 % 61 %
Vitesse du vent: 0 km/h 0 km/h 17.1 km/h
Rafales: 0 km/h - -
Vent:- - West
Pression: PressurehPa hPa 1011.4 hPa -
Précipitations: 0.0 mm    
Historical Graphs
 
 
Mesures pour : Fevrier 18, 2018
Heure Temperature Point de rosée Pression Vent Vitesse du vent Rafales Humidité Pluie (par heure) Conditions
TemperatureC °C DewpointC °C PressurehPa hPa Calm     Humidity % HourlyPrecipMM mm SoftwareType W/m2
00:12 9.5 °C 4.5 °C 1014.4 hPa NW 9.8 km/h 23 km/h 71 % 0.0 mm open2300-1.11 W/m2
01:12 9.0 °C 4.4 °C 1014.4 hPa NNE 23.8 km/h 27.7 km/h 73 % 0.0 mm open2300-1.11 W/m2
02:12 8.5 °C 3.7 °C 1014.1 hPa NNW 22 km/h 39.9 km/h 72 % 0.0 mm open2300-1.11 W/m2
03:12 8.1 °C 3.2 °C 1013.4 hPa WNW 28.5 km/h 33.6 km/h 71 % 0.0 mm open2300-1.11 W/m2
04:12 7.5 °C 2.6 °C 1013.1 hPa NNW 34.8 km/h 52 km/h 71 % 0.0 mm open2300-1.11 W/m2
05:12 7.3 °C 2.6 °C 1012.8 hPa NNE 31.9 km/h 31.9 km/h 72 % 0.0 mm open2300-1.11 W/m2
06:12 7.1 °C 2.0 °C 1013.4 hPa NW 13.2 km/h 17.9 km/h 70 % 0.0 mm open2300-1.11 W/m2
07:12 6.9 °C 1.6 °C 1013.4 hPa NW 6.4 km/h 19.2 km/h 69 % 0.0 mm open2300-1.11 W/m2
08:12 6.7 °C 1.0 °C 1012.4 hPa NNE 20.3 km/h 33.6 km/h 67 % 0.0 mm open2300-1.11 W/m2
09:12 7.5 °C 0.9 °C 1012.8 hPa NW 26.7 km/h 46.3 km/h 63 % 0.0 mm open2300-1.11 W/m2
11:12 9.5 °C 2.2 °C 1013.1 hPa NW 18.7 km/h 23.8 km/h 60 % 0.0 mm open2300-1.11 W/m2
12:12 10.7 °C 2.5 °C 1012.8 hPa NW 10.9 km/h 24.8 km/h 57 % 0.0 mm open2300-1.11 W/m2
13:12 11.2 °C 2.7 °C 1012.4 hPa NW 37.5 km/h 48.1 km/h 56 % 0.0 mm open2300-1.11 W/m2
14:12 11.1 °C 2.8 °C 1012.1 hPa NNW 33.6 km/h 40.7 km/h 57 % 0.0 mm open2300-1.11 W/m2
15:12 11.3 °C 2.8 °C 1011.7 hPa NNW 26.7 km/h 60.8 km/h 56 % 0.0 mm open2300-1.11 W/m2
16:12 11.3 °C 2.5 °C 1011.4 hPa WNW 23 km/h 23 km/h 55 % 0.0 mm open2300-1.11 W/m2
16:48 10.4 °C 1.9 °C 1011.7 hPa West 37 km/h 37 km/h 56 % 0.0 mm open2300-1.11 W/m2
17:12 10.2 °C 2.1 °C 1011.7 hPa WNW 10.3 km/h 37 km/h 57 % 0.0 mm open2300-1.11 W/m2
17:38 10.1 °C 1.9 °C 1011.7 hPa NNW 8 km/h 8 km/h 57 % 0.0 mm open2300-1.11 W/m2
18:12 9.8 °C 1.7 °C 1011.7 hPa NW 6.4 km/h 16.3 km/h 57 % 0.0 mm open2300-1.11 W/m2
19:12 9.1 °C 1.6 °C 1012.1 hPa WNW 4.2 km/h 15.6 km/h 59 % 0.0 mm open2300-1.11 W/m2
20:12 8.9 °C 1.8 °C 1012.4 hPa NW 5.6 km/h 11.6 km/h 61 % 0.0 mm open2300-1.11 W/m2
21:12 8.9 °C 1.8 °C 1012.1 hPa NW 3.4 km/h 3.4 km/h 61 % 0.0 mm open2300-1.11 W/m2
22:12 8.7 °C 2.1 °C 1012.8 hPa Calm   4.7 km/h 63 % 0.0 mm open2300-1.11 W/m2
23:12 8.7 °C 2.7 °C 1012.8 hPa Calm   16.3 km/h 66 % 0.0 mm open2300-1.11 W/m2
Observations météo à CASSIS
WU-History script by Weather Underground - 1 mb